Share

Carlsbad, NM

Cavern City (KCNM) Elev 3294 ft | 32.33 °N, 104.26 °W | Change Station

Current weather conditions updated 12 minutes ago

Clear
Clear
57 °F
Feels Like 57 °F
N
6
Wind Variable Wind from ESE
Sunrise 6:24 AM
Sunset 7:28 PM
Moon Waning Gibbous

Today is forecast to be Warmer than yesterday. Showers and thunderstorms.

Pressure 30.10 in
Visibility 10.0 miles
Clouds Clear
Dew Point 41 °F
Humidity 55%
Rainfall 0.00 in
Snow Depth Not available.
UV 0 out of 16
Pollen 9.00 out of 12
Air Quality Not available.
Flu Activity Local Activity
METAR KCNM 180553Z AUTO 11005KT 10SM CLR 14/05 A3019 RMK AO2 SLP191 T01390050 10239 20139 53027 TSNO

More Conditions Fewer Conditions

Pressure 30.10 in
Visibility 10.0 miles
Clouds Clear
Dew Point 41 °F
Humidity 55%
Rainfall 0.00 in
Snow Depth Not available.
UV 0 out of 16
Pollen 9.00 out of 12
Air Quality Not available.
Flu Activity Local Activity
METAR KCNM 180553Z AUTO 11005KT 10SM CLR 14/05 A3019 RMK AO2 SLP191 T01390050 10239 20139 53027 TSNO

More Conditions Fewer Conditions

10-Day Forecast

Almanac

Astronomy

Apr. 18, 2014 Rise Set
Actual Time 6:24 AM MDT 7:28 PM MDT
Civil Twilight 5:58 AM MDT 7:54 PM MDT
Nautical Twilight 5:28 AM MDT 8:24 PM MDT
Astronomical Twilight 4:57 AM MDT 8:55 PM MDT
Moon 11:08 PM MDT 8:56 AM MDT
Length of Visible Light 13h 55m
Length of Day
13h 04m
Tomorrow will be 1m 50s longer.
Waning Gibbous, 90% of the Moon is Illuminated
Today
Waning Gibbous
Apr 22
Last Quarter
Apr 29
New
May 6
First Quarter
May 14
Full

Today's Extremes

State Highs State Lows

Community

  • SUNRISE THROUGH THE TREES.
    SUNRISE THROUGH THE TREES.
  • Dog Wood Blossoms
    Dog Wood Blossoms
  • Morning Light
    Morning Light
  • New Day
    New Day
  • Lake Michigan Sunrise
    Lake Michigan Sunrise

WunderPhotos

Upload Photos

1,702,276 photos uploaded!

WunderBlogs® & News

Nearby

Snow Depth

Station Depth Elevation
McKnight Cabin 2 in 9240 ft
Signal Peak 0 in 8360 ft
Wesner Springs 0 in 11120 ft
Santa Fe 32 in 11445 ft
Silver Creek Divide 1 in 9000 ft

Coastal Water Temperatures

Place Temperature
No Stations Reporting

Earthquake Activity

City Distance Mag. Time & Date
No recent earthquake activity has been reported nearby.
Minimum magnitude displayed is 2.5.

Nearby Weather Stations

Station Location Temp. Dew Point Humidity Wind Precip. Elev Updated Type
Carlsbad, NM 57.9 °F 44 °F 60% East  at  7.0 mph 0.00 in / hr 3150 ft 12:02 AM MDT Normal
Ridgecrest Subdivision, Carlsbad, NM 57.0 °F 44 °F 63% ESE  at  7.0 mph 0.00 in / hr 3150 ft 12:05 AM MDT Normal
North Carlsbad, Carlsbad, NM 66.4 °F 12 °F 12% NNW  at  0.0 mph 0.00 in / hr 3127 ft 8:16 PM MDT Rapid Fire
SKP Ranch, Lakewood, NM 57.0 °F 44 °F 61% ESE  at  10.2 mph 0.00 in / hr 3327 ft 12:00 AM MDT Normal

Show More Stations Show Fewer Stations

What do you think?

We're not finished. Please let us know what you like, what you don't like, and what you are still missing.